sensor_id;sensor_type;location;lat;lon;timestamp;temperature;humidity
5842;DHT22;2947;52.276;9.946;2023-12-28T00:00:46;8.30;99.90
5842;DHT22;2947;52.276;9.946;2023-12-28T00:03:13;8.30;99.90
5842;DHT22;2947;52.276;9.946;2023-12-28T00:05:39;8.40;99.90
5842;DHT22;2947;52.276;9.946;2023-12-28T00:08:05;8.40;99.90
5842;DHT22;2947;52.276;9.946;2023-12-28T00:10:30;8.50;26.70
5842;DHT22;2947;52.276;9.946;2023-12-28T00:12:56;8.60;92.50
5842;DHT22;2947;52.276;9.946;2023-12-28T00:15:22;8.60;1.00
5842;DHT22;2947;52.276;9.946;2023-12-28T00:17:48;8.60;1.00
5842;DHT22;2947;52.276;9.946;2023-12-28T00:20:13;8.60;41.60
5842;DHT22;2947;52.276;9.946;2023-12-28T00:22:39;8.70;1.00
5842;DHT22;2947;52.276;9.946;2023-12-28T00:25:05;8.80;1.00
5842;DHT22;2947;52.276;9.946;2023-12-28T00:27:31;8.80;1.00
5842;DHT22;2947;52.276;9.946;2023-12-28T00:29:59;8.80;1.00
5842;DHT22;2947;52.276;9.946;2023-12-28T00:32:25;8.90;1.00
5842;DHT22;2947;52.276;9.946;2023-12-28T00:34:51;8.90;1.00
5842;DHT22;2947;52.276;9.946;2023-12-28T00:37:17;8.90;1.00
5842;DHT22;2947;52.276;9.946;2023-12-28T00:39:42;8.90;1.00
5842;DHT22;2947;52.276;9.946;2023-12-28T00:42:09;8.90;1.00
5842;DHT22;2947;52.276;9.946;2023-12-28T00:44:35;8.90;1.00
5842;DHT22;2947;52.276;9.946;2023-12-28T00:47:01;8.90;1.00
5842;DHT22;2947;52.276;9.946;2023-12-28T00:49:27;8.90;1.00
5842;DHT22;2947;52.276;9.946;2023-12-28T00:51:52;9.00;1.00
5842;DHT22;2947;52.276;9.946;2023-12-28T00:54:19;8.90;99.90
5842;DHT22;2947;52.276;9.946;2023-12-28T00:56:44;8.90;1.00
5842;DHT22;2947;52.276;9.946;2023-12-28T00:59:10;8.90;1.00
5842;DHT22;2947;52.276;9.946;2023-12-28T01:01:36;8.90;99.90
5842;DHT22;2947;52.276;9.946;2023-12-28T01:04:02;8.90;99.90
5842;DHT22;2947;52.276;9.946;2023-12-28T01:06:27;8.80;99.90
5842;DHT22;2947;52.276;9.946;2023-12-28T01:08:54;8.90;99.90
5842;DHT22;2947;52.276;9.946;2023-12-28T01:11:20;8.80;99.90
5842;DHT22;2947;52.276;9.946;2023-12-28T01:13:46;8.80;1.00
5842;DHT22;2947;52.276;9.946;2023-12-28T01:16:15;8.70;1.00
5842;DHT22;2947;52.276;9.946;2023-12-28T01:18:40;8.70;1.00
5842;DHT22;2947;52.276;9.946;2023-12-28T01:21:06;8.70;42.40
5842;DHT22;2947;52.276;9.946;2023-12-28T01:23:32;8.60;99.90
5842;DHT22;2947;52.276;9.946;2023-12-28T01:25:59;8.60;99.90
5842;DHT22;2947;52.276;9.946;2023-12-28T01:28:25;8.50;99.90
5842;DHT22;2947;52.276;9.946;2023-12-28T01:30:51;8.50;99.90
5842;DHT22;2947;52.276;9.946;2023-12-28T01:33:17;8.50;99.90
5842;DHT22;2947;52.276;9.946;2023-12-28T01:35:43;8.40;99.90
5842;DHT22;2947;52.276;9.946;2023-12-28T01:38:09;8.40;99.90
5842;DHT22;2947;52.276;9.946;2023-12-28T01:40:34;8.30;99.90
5842;DHT22;2947;52.276;9.946;2023-12-28T01:43:00;8.30;99.90
5842;DHT22;2947;52.276;9.946;2023-12-28T01:45:26;8.30;99.90
5842;DHT22;2947;52.276;9.946;2023-12-28T01:47:53;8.20;99.90
5842;DHT22;2947;52.276;9.946;2023-12-28T01:50:20;8.20;99.90
5842;DHT22;2947;52.276;9.946;2023-12-28T01:52:47;8.20;99.90
5842;DHT22;2947;52.276;9.946;2023-12-28T01:55:14;8.20;99.90
5842;DHT22;2947;52.276;9.946;2023-12-28T01:57:41;8.30;99.90
5842;DHT22;2947;52.276;9.946;2023-12-28T02:00:07;8.30;99.90
5842;DHT22;2947;52.276;9.946;2023-12-28T02:02:33;8.30;99.90
5842;DHT22;2947;52.276;9.946;2023-12-28T02:05:00;8.30;99.90
5842;DHT22;2947;52.276;9.946;2023-12-28T02:07:25;8.30;99.90
5842;DHT22;2947;52.276;9.946;2023-12-28T02:09:51;8.30;99.90
5842;DHT22;2947;52.276;9.946;2023-12-28T02:12:17;8.30;99.90
5842;DHT22;2947;52.276;9.946;2023-12-28T02:14:43;8.30;99.90
5842;DHT22;2947;52.276;9.946;2023-12-28T02:17:35;8.30;99.90
5842;DHT22;2947;52.276;9.946;2023-12-28T02:20:03;8.40;99.90
5842;DHT22;2947;52.276;9.946;2023-12-28T02:22:32;8.40;99.90
5842;DHT22;2947;52.276;9.946;2023-12-28T02:25:13;8.40;99.90
5842;DHT22;2947;52.276;9.946;2023-12-28T02:27:41;8.40;99.90
5842;DHT22;2947;52.276;9.946;2023-12-28T02:30:09;8.40;99.90
5842;DHT22;2947;52.276;9.946;2023-12-28T02:35:30;8.40;99.90
5842;DHT22;2947;52.276;9.946;2023-12-28T02:38:02;8.40;99.90
5842;DHT22;2947;52.276;9.946;2023-12-28T02:40:35;8.40;99.90
5842;DHT22;2947;52.276;9.946;2023-12-28T02:43:05;8.40;99.90
5842;DHT22;2947;52.276;9.946;2023-12-28T02:45:31;8.40;99.90
5842;DHT22;2947;52.276;9.946;2023-12-28T02:47:57;8.40;99.90
5842;DHT22;2947;52.276;9.946;2023-12-28T02:50:22;8.40;99.90
5842;DHT22;2947;52.276;9.946;2023-12-28T02:52:48;8.40;99.90
5842;DHT22;2947;52.276;9.946;2023-12-28T02:55:14;8.40;99.90
5842;DHT22;2947;52.276;9.946;2023-12-28T02:57:40;8.40;99.90
5842;DHT22;2947;52.276;9.946;2023-12-28T03:00:07;8.40;99.90
5842;DHT22;2947;52.276;9.946;2023-12-28T03:02:35;8.40;99.90
5842;DHT22;2947;52.276;9.946;2023-12-28T03:05:03;8.40;99.90
5842;DHT22;2947;52.276;9.946;2023-12-28T03:07:30;8.50;99.90
5842;DHT22;2947;52.276;9.946;2023-12-28T03:09:56;8.50;99.90
5842;DHT22;2947;52.276;9.946;2023-12-28T03:12:21;8.50;99.90
5842;DHT22;2947;52.276;9.946;2023-12-28T03:14:47;8.50;99.90
5842;DHT22;2947;52.276;9.946;2023-12-28T03:17:13;8.50;99.90
5842;DHT22;2947;52.276;9.946;2023-12-28T03:19:39;8.50;99.90
5842;DHT22;2947;52.276;9.946;2023-12-28T03:22:05;8.50;99.90
5842;DHT22;2947;52.276;9.946;2023-12-28T03:24:30;8.50;99.90
5842;DHT22;2947;52.276;9.946;2023-12-28T03:26:56;8.50;99.90
5842;DHT22;2947;52.276;9.946;2023-12-28T03:29:22;8.60;99.90
5842;DHT22;2947;52.276;9.946;2023-12-28T03:31:47;8.60;99.90
5842;DHT22;2947;52.276;9.946;2023-12-28T03:34:13;8.60;99.90
5842;DHT22;2947;52.276;9.946;2023-12-28T03:36:39;8.60;99.90
5842;DHT22;2947;52.276;9.946;2023-12-28T03:39:05;8.70;99.90
5842;DHT22;2947;52.276;9.946;2023-12-28T03:41:31;8.70;99.90
5842;DHT22;2947;52.276;9.946;2023-12-28T03:43:57;8.70;99.90
5842;DHT22;2947;52.276;9.946;2023-12-28T03:46:22;8.70;99.90
5842;DHT22;2947;52.276;9.946;2023-12-28T03:48:48;8.80;99.90
5842;DHT22;2947;52.276;9.946;2023-12-28T03:51:14;8.80;99.90
5842;DHT22;2947;52.276;9.946;2023-12-28T03:53:41;8.80;99.90
5842;DHT22;2947;52.276;9.946;2023-12-28T03:56:07;8.80;99.90
5842;DHT22;2947;52.276;9.946;2023-12-28T03:58:33;8.80;99.90
5842;DHT22;2947;52.276;9.946;2023-12-28T04:00:59;8.80;99.90
5842;DHT22;2947;52.276;9.946;2023-12-28T04:03:24;8.80;99.90
5842;DHT22;2947;52.276;9.946;2023-12-28T04:05:51;8.80;99.90
5842;DHT22;2947;52.276;9.946;2023-12-28T04:08:17;8.90;99.90
5842;DHT22;2947;52.276;9.946;2023-12-28T04:10:42;8.90;99.90
5842;DHT22;2947;52.276;9.946;2023-12-28T04:13:08;9.00;99.90
5842;DHT22;2947;52.276;9.946;2023-12-28T04:15:34;8.90;99.90
5842;DHT22;2947;52.276;9.946;2023-12-28T04:17:59;9.00;99.90
5842;DHT22;2947;52.276;9.946;2023-12-28T04:20:25;9.00;99.90
5842;DHT22;2947;52.276;9.946;2023-12-28T04:22:51;9.00;99.90
5842;DHT22;2947;52.276;9.946;2023-12-28T04:25:17;9.00;99.90
5842;DHT22;2947;52.276;9.946;2023-12-28T04:27:42;9.00;99.90
5842;DHT22;2947;52.276;9.946;2023-12-28T04:30:11;9.10;99.90
5842;DHT22;2947;52.276;9.946;2023-12-28T04:32:38;9.10;99.90
5842;DHT22;2947;52.276;9.946;2023-12-28T04:35:04;9.10;99.90
5842;DHT22;2947;52.276;9.946;2023-12-28T04:37:32;9.10;99.90
5842;DHT22;2947;52.276;9.946;2023-12-28T04:39:58;9.00;99.90
5842;DHT22;2947;52.276;9.946;2023-12-28T04:42:24;9.10;99.90
5842;DHT22;2947;52.276;9.946;2023-12-28T04:44:50;9.10;99.90
5842;DHT22;2947;52.276;9.946;2023-12-28T04:47:15;9.10;99.90
5842;DHT22;2947;52.276;9.946;2023-12-28T04:49:41;9.10;99.90
5842;DHT22;2947;52.276;9.946;2023-12-28T04:52:07;9.10;99.90
5842;DHT22;2947;52.276;9.946;2023-12-28T04:54:32;9.10;99.90
5842;DHT22;2947;52.276;9.946;2023-12-28T04:56:58;9.10;99.90
5842;DHT22;2947;52.276;9.946;2023-12-28T04:59:25;9.10;99.90
5842;DHT22;2947;52.276;9.946;2023-12-28T05:01:51;9.20;99.90
5842;DHT22;2947;52.276;9.946;2023-12-28T05:04:17;9.20;99.90
5842;DHT22;2947;52.276;9.946;2023-12-28T05:06:42;9.10;99.90
5842;DHT22;2947;52.276;9.946;2023-12-28T05:09:08;9.20;99.90
5842;DHT22;2947;52.276;9.946;2023-12-28T05:11:34;9.20;99.90
5842;DHT22;2947;52.276;9.946;2023-12-28T05:14:00;9.20;99.90
5842;DHT22;2947;52.276;9.946;2023-12-28T05:16:25;9.20;99.90
5842;DHT22;2947;52.276;9.946;2023-12-28T05:18:51;9.10;99.90
5842;DHT22;2947;52.276;9.946;2023-12-28T05:21:18;9.10;99.90
5842;DHT22;2947;52.276;9.946;2023-12-28T05:23:43;9.20;99.90
5842;DHT22;2947;52.276;9.946;2023-12-28T05:26:09;9.20;99.90
5842;DHT22;2947;52.276;9.946;2023-12-28T05:28:35;9.10;99.90
5842;DHT22;2947;52.276;9.946;2023-12-28T05:31:00;9.10;99.90
5842;DHT22;2947;52.276;9.946;2023-12-28T05:33:28;9.10;99.90
5842;DHT22;2947;52.276;9.946;2023-12-28T05:35:54;9.10;99.90
5842;DHT22;2947;52.276;9.946;2023-12-28T05:38:20;9.20;99.90
5842;DHT22;2947;52.276;9.946;2023-12-28T05:40:45;9.20;99.90
5842;DHT22;2947;52.276;9.946;2023-12-28T05:43:11;9.20;99.90
5842;DHT22;2947;52.276;9.946;2023-12-28T05:45:37;9.30;99.90
5842;DHT22;2947;52.276;9.946;2023-12-28T05:48:03;9.20;99.90
5842;DHT22;2947;52.276;9.946;2023-12-28T05:50:29;9.30;99.90
5842;DHT22;2947;52.276;9.946;2023-12-28T05:52:54;9.30;99.90
5842;DHT22;2947;52.276;9.946;2023-12-28T05:55:20;9.30;99.90
5842;DHT22;2947;52.276;9.946;2023-12-28T05:57:46;9.30;99.90
5842;DHT22;2947;52.276;9.946;2023-12-28T06:00:13;9.30;99.90
5842;DHT22;2947;52.276;9.946;2023-12-28T06:02:40;9.30;99.90
5842;DHT22;2947;52.276;9.946;2023-12-28T06:05:07;9.40;99.90
5842;DHT22;2947;52.276;9.946;2023-12-28T06:07:33;9.40;99.90
5842;DHT22;2947;52.276;9.946;2023-12-28T06:09:59;9.40;99.90
5842;DHT22;2947;52.276;9.946;2023-12-28T06:12:25;9.40;99.90
5842;DHT22;2947;52.276;9.946;2023-12-28T06:14:51;9.40;99.90
5842;DHT22;2947;52.276;9.946;2023-12-28T06:17:16;9.40;99.90
5842;DHT22;2947;52.276;9.946;2023-12-28T06:19:43;9.30;99.90
5842;DHT22;2947;52.276;9.946;2023-12-28T06:22:09;9.40;99.90
5842;DHT22;2947;52.276;9.946;2023-12-28T06:24:39;9.30;99.90
5842;DHT22;2947;52.276;9.946;2023-12-28T06:27:05;9.40;99.90
5842;DHT22;2947;52.276;9.946;2023-12-28T06:29:31;9.30;99.90
5842;DHT22;2947;52.276;9.946;2023-12-28T06:31:57;9.40;99.90
5842;DHT22;2947;52.276;9.946;2023-12-28T06:34:23;9.40;99.90
5842;DHT22;2947;52.276;9.946;2023-12-28T06:36:48;9.40;99.90
5842;DHT22;2947;52.276;9.946;2023-12-28T06:39:14;9.40;99.90
5842;DHT22;2947;52.276;9.946;2023-12-28T06:41:40;9.40;99.90
5842;DHT22;2947;52.276;9.946;2023-12-28T06:44:05;9.40;99.90
5842;DHT22;2947;52.276;9.946;2023-12-28T06:46:31;9.40;99.90
5842;DHT22;2947;52.276;9.946;2023-12-28T06:48:57;9.30;99.90
5842;DHT22;2947;52.276;9.946;2023-12-28T06:51:24;9.30;99.90
5842;DHT22;2947;52.276;9.946;2023-12-28T06:53:50;9.30;99.90
5842;DHT22;2947;52.276;9.946;2023-12-28T06:56:16;9.30;99.90
5842;DHT22;2947;52.276;9.946;2023-12-28T06:58:42;9.30;99.90
5842;DHT22;2947;52.276;9.946;2023-12-28T07:01:08;9.30;99.90
5842;DHT22;2947;52.276;9.946;2023-12-28T07:03:34;9.30;99.90
5842;DHT22;2947;52.276;9.946;2023-12-28T07:06:00;9.30;99.90
5842;DHT22;2947;52.276;9.946;2023-12-28T07:08:26;9.30;99.90
5842;DHT22;2947;52.276;9.946;2023-12-28T07:10:51;9.30;99.90
5842;DHT22;2947;52.276;9.946;2023-12-28T07:13:17;9.30;99.90
5842;DHT22;2947;52.276;9.946;2023-12-28T07:15:43;9.30;99.90
5842;DHT22;2947;52.276;9.946;2023-12-28T07:18:09;9.20;99.90
5842;DHT22;2947;52.276;9.946;2023-12-28T07:20:34;9.30;99.90
5842;DHT22;2947;52.276;9.946;2023-12-28T07:23:00;9.20;99.90
5842;DHT22;2947;52.276;9.946;2023-12-28T07:25:26;9.20;99.90
5842;DHT22;2947;52.276;9.946;2023-12-28T07:27:51;9.20;99.90
5842;DHT22;2947;52.276;9.946;2023-12-28T07:30:20;9.20;99.90
5842;DHT22;2947;52.276;9.946;2023-12-28T07:32:46;9.20;99.90
5842;DHT22;2947;52.276;9.946;2023-12-28T07:35:12;9.20;99.90
5842;DHT22;2947;52.276;9.946;2023-12-28T07:37:38;9.30;99.90
5842;DHT22;2947;52.276;9.946;2023-12-28T07:40:04;9.30;99.90
5842;DHT22;2947;52.276;9.946;2023-12-28T07:42:30;9.20;99.90
5842;DHT22;2947;52.276;9.946;2023-12-28T07:44:56;9.20;99.90
5842;DHT22;2947;52.276;9.946;2023-12-28T07:47:22;9.20;99.90
5842;DHT22;2947;52.276;9.946;2023-12-28T07:49:47;9.30;99.90
5842;DHT22;2947;52.276;9.946;2023-12-28T07:52:13;9.30;99.90
5842;DHT22;2947;52.276;9.946;2023-12-28T07:54:39;9.20;99.90
5842;DHT22;2947;52.276;9.946;2023-12-28T07:57:05;9.30;99.90
5842;DHT22;2947;52.276;9.946;2023-12-28T07:59:30;9.20;99.90
5842;DHT22;2947;52.276;9.946;2023-12-28T08:01:56;9.20;99.90
5842;DHT22;2947;52.276;9.946;2023-12-28T08:04:22;9.20;99.90
5842;DHT22;2947;52.276;9.946;2023-12-28T08:06:48;9.20;99.90
5842;DHT22;2947;52.276;9.946;2023-12-28T08:09:14;9.20;99.90
5842;DHT22;2947;52.276;9.946;2023-12-28T08:11:40;9.20;99.90
5842;DHT22;2947;52.276;9.946;2023-12-28T08:14:06;9.20;99.90
5842;DHT22;2947;52.276;9.946;2023-12-28T08:16:31;9.20;99.90
5842;DHT22;2947;52.276;9.946;2023-12-28T08:18:57;9.20;99.00
5842;DHT22;2947;52.276;9.946;2023-12-28T08:21:23;9.20;94.60
5842;DHT22;2947;52.276;9.946;2023-12-28T08:23:49;9.20;98.10
5842;DHT22;2947;52.276;9.946;2023-12-28T08:26:14;9.20;99.10
5842;DHT22;2947;52.276;9.946;2023-12-28T08:28:40;9.20;92.20
5842;DHT22;2947;52.276;9.946;2023-12-28T08:31:06;9.20;88.20
5842;DHT22;2947;52.276;9.946;2023-12-28T08:33:33;9.20;72.90
5842;DHT22;2947;52.276;9.946;2023-12-28T08:36:02;9.30;74.20
5842;DHT22;2947;52.276;9.946;2023-12-28T08:38:29;9.30;64.80
5842;DHT22;2947;52.276;9.946;2023-12-28T08:40:55;9.30;76.90
5842;DHT22;2947;52.276;9.946;2023-12-28T08:43:20;9.30;58.00
5842;DHT22;2947;52.276;9.946;2023-12-28T08:45:46;9.30;52.60
5842;DHT22;2947;52.276;9.946;2023-12-28T08:48:12;9.40;37.10
5842;DHT22;2947;52.276;9.946;2023-12-28T08:50:37;9.40;56.60
5842;DHT22;2947;52.276;9.946;2023-12-28T08:53:03;9.40;47.10
5842;DHT22;2947;52.276;9.946;2023-12-28T08:55:29;9.40;27.30
5842;DHT22;2947;52.276;9.946;2023-12-28T08:57:54;9.40;23.60
5842;DHT22;2947;52.276;9.946;2023-12-28T09:00:20;9.40;26.00
5842;DHT22;2947;52.276;9.946;2023-12-28T09:02:46;9.40;20.50
5842;DHT22;2947;52.276;9.946;2023-12-28T09:05:12;9.50;1.00
5842;DHT22;2947;52.276;9.946;2023-12-28T09:07:37;9.50;2.40
5842;DHT22;2947;52.276;9.946;2023-12-28T09:10:10;9.60;1.00
5842;DHT22;2947;52.276;9.946;2023-12-28T09:12:36;9.50;1.00
5842;DHT22;2947;52.276;9.946;2023-12-28T09:15:04;9.60;1.00
5842;DHT22;2947;52.276;9.946;2023-12-28T09:17:30;9.60;1.00
5842;DHT22;2947;52.276;9.946;2023-12-28T09:19:56;9.60;1.00
5842;DHT22;2947;52.276;9.946;2023-12-28T09:22:23;9.70;1.00
5842;DHT22;2947;52.276;9.946;2023-12-28T09:24:49;9.70;1.00
5842;DHT22;2947;52.276;9.946;2023-12-28T09:27:15;9.60;1.00
5842;DHT22;2947;52.276;9.946;2023-12-28T09:29:41;9.70;1.00
5842;DHT22;2947;52.276;9.946;2023-12-28T09:32:06;9.70;1.00
5842;DHT22;2947;52.276;9.946;2023-12-28T09:34:32;9.70;1.00
5842;DHT22;2947;52.276;9.946;2023-12-28T09:36:58;9.70;1.00
5842;DHT22;2947;52.276;9.946;2023-12-28T09:39:24;9.80;1.00
5842;DHT22;2947;52.276;9.946;2023-12-28T09:41:55;9.70;1.00
5842;DHT22;2947;52.276;9.946;2023-12-28T09:44:26;9.80;1.00
5842;DHT22;2947;52.276;9.946;2023-12-28T09:46:53;9.80;1.00
5842;DHT22;2947;52.276;9.946;2023-12-28T09:49:21;9.90;1.00
5842;DHT22;2947;52.276;9.946;2023-12-28T09:51:48;9.90;1.00
5842;DHT22;2947;52.276;9.946;2023-12-28T09:54:13;10.00;1.00
5842;DHT22;2947;52.276;9.946;2023-12-28T09:56:40;10.00;1.00
5842;DHT22;2947;52.276;9.946;2023-12-28T09:59:07;10.10;1.00
5842;DHT22;2947;52.276;9.946;2023-12-28T10:01:34;10.20;1.00
5842;DHT22;2947;52.276;9.946;2023-12-28T10:04:01;10.20;1.00
5842;DHT22;2947;52.276;9.946;2023-12-28T10:06:28;10.20;1.00
5842;DHT22;2947;52.276;9.946;2023-12-28T10:08:54;10.20;1.00
5842;DHT22;2947;52.276;9.946;2023-12-28T10:11:21;10.30;1.00
5842;DHT22;2947;52.276;9.946;2023-12-28T10:13:50;10.30;1.00
5842;DHT22;2947;52.276;9.946;2023-12-28T10:16:16;10.30;1.00
5842;DHT22;2947;52.276;9.946;2023-12-28T10:18:42;10.30;1.00
5842;DHT22;2947;52.276;9.946;2023-12-28T10:21:09;10.40;1.00
5842;DHT22;2947;52.276;9.946;2023-12-28T10:23:35;10.40;1.00
5842;DHT22;2947;52.276;9.946;2023-12-28T10:26:01;10.40;1.00
5842;DHT22;2947;52.276;9.946;2023-12-28T10:28:31;10.30;1.00
5842;DHT22;2947;52.276;9.946;2023-12-28T10:30:58;10.30;1.00
5842;DHT22;2947;52.276;9.946;2023-12-28T10:33:24;10.40;1.00
5842;DHT22;2947;52.276;9.946;2023-12-28T10:35:51;10.40;1.00
5842;DHT22;2947;52.276;9.946;2023-12-28T10:38:18;10.60;1.00
5842;DHT22;2947;52.276;9.946;2023-12-28T10:40:46;10.60;1.00
5842;DHT22;2947;52.276;9.946;2023-12-28T10:43:17;10.70;1.00
5842;DHT22;2947;52.276;9.946;2023-12-28T10:45:50;10.70;1.00
5842;DHT22;2947;52.276;9.946;2023-12-28T10:48:22;10.80;1.00
5842;DHT22;2947;52.276;9.946;2023-12-28T10:50:57;10.90;1.00
5842;DHT22;2947;52.276;9.946;2023-12-28T10:56:09;11.00;1.00
5842;DHT22;2947;52.276;9.946;2023-12-28T10:58:48;10.90;1.00
5842;DHT22;2947;52.276;9.946;2023-12-28T11:01:35;10.80;1.00
5842;DHT22;2947;52.276;9.946;2023-12-28T11:04:17;10.80;1.00
5842;DHT22;2947;52.276;9.946;2023-12-28T11:06:48;10.80;1.00
5842;DHT22;2947;52.276;9.946;2023-12-28T11:09:15;10.80;1.00
5842;DHT22;2947;52.276;9.946;2023-12-28T11:11:43;10.80;1.00
5842;DHT22;2947;52.276;9.946;2023-12-28T11:14:09;10.80;1.00
5842;DHT22;2947;52.276;9.946;2023-12-28T11:16:36;10.80;1.00
5842;DHT22;2947;52.276;9.946;2023-12-28T11:19:03;10.80;1.00
5842;DHT22;2947;52.276;9.946;2023-12-28T11:21:30;10.80;1.00
5842;DHT22;2947;52.276;9.946;2023-12-28T11:23:56;10.80;1.00
5842;DHT22;2947;52.276;9.946;2023-12-28T11:26:22;10.80;1.00
5842;DHT22;2947;52.276;9.946;2023-12-28T11:28:49;10.80;1.00
5842;DHT22;2947;52.276;9.946;2023-12-28T11:31:16;10.80;1.00
5842;DHT22;2947;52.276;9.946;2023-12-28T11:33:47;10.70;1.00
5842;DHT22;2947;52.276;9.946;2023-12-28T11:36:26;10.70;1.00
5842;DHT22;2947;52.276;9.946;2023-12-28T11:39:05;10.70;1.00
5842;DHT22;2947;52.276;9.946;2023-12-28T11:41:32;10.70;1.00
5842;DHT22;2947;52.276;9.946;2023-12-28T11:44:05;10.70;1.00
5842;DHT22;2947;52.276;9.946;2023-12-28T11:46:35;10.70;1.00
5842;DHT22;2947;52.276;9.946;2023-12-28T11:49:05;10.70;1.00
5842;DHT22;2947;52.276;9.946;2023-12-28T11:51:34;10.70;1.00
5842;DHT22;2947;52.276;9.946;2023-12-28T11:54:03;10.70;1.00
5842;DHT22;2947;52.276;9.946;2023-12-28T11:56:29;10.70;1.00
5842;DHT22;2947;52.276;9.946;2023-12-28T11:58:55;10.70;1.00
5842;DHT22;2947;52.276;9.946;2023-12-28T12:01:21;10.80;1.00
5842;DHT22;2947;52.276;9.946;2023-12-28T12:03:48;10.80;1.00
5842;DHT22;2947;52.276;9.946;2023-12-28T12:06:14;10.80;1.00
5842;DHT22;2947;52.276;9.946;2023-12-28T12:08:40;10.80;1.00
5842;DHT22;2947;52.276;9.946;2023-12-28T12:11:06;10.80;1.00
5842;DHT22;2947;52.276;9.946;2023-12-28T12:13:33;10.90;1.00
5842;DHT22;2947;52.276;9.946;2023-12-28T12:15:59;10.90;99.90
5842;DHT22;2947;52.276;9.946;2023-12-28T12:18:30;11.00;99.90
5842;DHT22;2947;52.276;9.946;2023-12-28T12:20:57;11.00;99.90
5842;DHT22;2947;52.276;9.946;2023-12-28T12:23:24;11.00;99.90
5842;DHT22;2947;52.276;9.946;2023-12-28T12:25:50;11.10;30.00
5842;DHT22;2947;52.276;9.946;2023-12-28T12:28:16;11.10;1.00
5842;DHT22;2947;52.276;9.946;2023-12-28T12:30:53;11.10;98.60
5842;DHT22;2947;52.276;9.946;2023-12-28T12:33:21;11.10;1.00
5842;DHT22;2947;52.276;9.946;2023-12-28T12:35:47;11.20;99.90
5842;DHT22;2947;52.276;9.946;2023-12-28T12:38:13;11.20;99.90
5842;DHT22;2947;52.276;9.946;2023-12-28T12:40:39;11.20;99.90
5842;DHT22;2947;52.276;9.946;2023-12-28T12:43:06;11.30;99.90
5842;DHT22;2947;52.276;9.946;2023-12-28T12:45:34;11.20;99.90
5842;DHT22;2947;52.276;9.946;2023-12-28T12:48:02;11.20;90.40
5842;DHT22;2947;52.276;9.946;2023-12-28T12:50:31;11.20;1.00
5842;DHT22;2947;52.276;9.946;2023-12-28T12:53:01;11.20;99.90
5842;DHT22;2947;52.276;9.946;2023-12-28T12:55:30;11.20;99.90
5842;DHT22;2947;52.276;9.946;2023-12-28T12:57:56;11.20;99.90
5842;DHT22;2947;52.276;9.946;2023-12-28T13:00:22;11.20;82.50
5842;DHT22;2947;52.276;9.946;2023-12-28T13:02:51;11.20;18.80
5842;DHT22;2947;52.276;9.946;2023-12-28T13:05:18;11.20;99.90
5842;DHT22;2947;52.276;9.946;2023-12-28T13:07:44;11.20;99.90
5842;DHT22;2947;52.276;9.946;2023-12-28T13:10:10;11.20;1.00
5842;DHT22;2947;52.276;9.946;2023-12-28T13:12:36;11.20;99.90
5842;DHT22;2947;52.276;9.946;2023-12-28T13:15:02;11.20;99.90
5842;DHT22;2947;52.276;9.946;2023-12-28T13:17:28;11.20;99.90
5842;DHT22;2947;52.276;9.946;2023-12-28T13:19:53;11.20;1.00
5842;DHT22;2947;52.276;9.946;2023-12-28T13:22:19;10.40;99.90
5842;DHT22;2947;52.276;9.946;2023-12-28T13:24:45;11.20;95.50
5842;DHT22;2947;52.276;9.946;2023-12-28T13:27:11;11.20;99.90
5842;DHT22;2947;52.276;9.946;2023-12-28T13:29:36;11.20;99.90
5842;DHT22;2947;52.276;9.946;2023-12-28T13:32:02;11.20;1.00
5842;DHT22;2947;52.276;9.946;2023-12-28T13:34:29;11.10;99.90
5842;DHT22;2947;52.276;9.946;2023-12-28T13:36:54;11.10;1.00
5842;DHT22;2947;52.276;9.946;2023-12-28T13:39:20;11.10;66.70
5842;DHT22;2947;52.276;9.946;2023-12-28T13:41:46;11.10;1.00
5842;DHT22;2947;52.276;9.946;2023-12-28T13:44:12;11.10;99.90
5842;DHT22;2947;52.276;9.946;2023-12-28T13:46:38;11.10;99.90
5842;DHT22;2947;52.276;9.946;2023-12-28T13:49:05;11.10;7.80
5842;DHT22;2947;52.276;9.946;2023-12-28T13:51:32;11.10;99.90
5842;DHT22;2947;52.276;9.946;2023-12-28T13:53:58;11.00;99.90
5842;DHT22;2947;52.276;9.946;2023-12-28T13:56:23;11.00;90.80
5842;DHT22;2947;52.276;9.946;2023-12-28T13:58:49;11.00;88.30
5842;DHT22;2947;52.276;9.946;2023-12-28T14:01:15;11.00;63.30
5842;DHT22;2947;52.276;9.946;2023-12-28T14:03:41;10.90;99.90
5842;DHT22;2947;52.276;9.946;2023-12-28T14:06:07;11.00;99.90
5842;DHT22;2947;52.276;9.946;2023-12-28T14:08:32;10.90;99.90
5842;DHT22;2947;52.276;9.946;2023-12-28T14:10:58;10.90;99.90
5842;DHT22;2947;52.276;9.946;2023-12-28T14:13:24;10.90;99.90
5842;DHT22;2947;52.276;9.946;2023-12-28T14:15:51;10.90;99.90
5842;DHT22;2947;52.276;9.946;2023-12-28T14:18:16;10.90;1.00
5842;DHT22;2947;52.276;9.946;2023-12-28T14:20:42;10.90;1.00
5842;DHT22;2947;52.276;9.946;2023-12-28T14:23:08;10.80;99.90
5842;DHT22;2947;52.276;9.946;2023-12-28T14:25:34;10.80;99.90
5842;DHT22;2947;52.276;9.946;2023-12-28T14:28:01;10.80;99.90
5842;DHT22;2947;52.276;9.946;2023-12-28T14:30:27;10.80;1.00
5842;DHT22;2947;52.276;9.946;2023-12-28T14:32:53;10.80;99.90
5842;DHT22;2947;52.276;9.946;2023-12-28T14:35:19;10.80;1.00
5842;DHT22;2947;52.276;9.946;2023-12-28T14:37:45;10.80;1.00
5842;DHT22;2947;52.276;9.946;2023-12-28T14:40:11;10.80;1.00
5842;DHT22;2947;52.276;9.946;2023-12-28T14:42:38;10.70;1.00
5842;DHT22;2947;52.276;9.946;2023-12-28T14:45:04;10.80;1.00
5842;DHT22;2947;52.276;9.946;2023-12-28T14:47:31;10.70;1.00
5842;DHT22;2947;52.276;9.946;2023-12-28T14:49:56;10.80;1.00
5842;DHT22;2947;52.276;9.946;2023-12-28T14:52:23;10.80;1.00
5842;DHT22;2947;52.276;9.946;2023-12-28T14:54:51;10.80;99.90
5842;DHT22;2947;52.276;9.946;2023-12-28T14:57:19;10.80;99.90
5842;DHT22;2947;52.276;9.946;2023-12-28T14:59:46;10.70;99.90
5842;DHT22;2947;52.276;9.946;2023-12-28T15:02:11;10.80;99.90
5842;DHT22;2947;52.276;9.946;2023-12-28T15:04:37;10.70;99.90
5842;DHT22;2947;52.276;9.946;2023-12-28T15:07:06;10.70;99.90
5842;DHT22;2947;52.276;9.946;2023-12-28T15:09:32;10.70;99.90
5842;DHT22;2947;52.276;9.946;2023-12-28T15:11:58;10.70;99.90
5842;DHT22;2947;52.276;9.946;2023-12-28T15:14:25;10.70;99.90
5842;DHT22;2947;52.276;9.946;2023-12-28T15:16:52;10.70;99.90
5842;DHT22;2947;52.276;9.946;2023-12-28T15:19:18;10.70;99.90
5842;DHT22;2947;52.276;9.946;2023-12-28T15:21:44;10.60;99.90
5842;DHT22;2947;52.276;9.946;2023-12-28T15:24:11;10.60;24.00
5842;DHT22;2947;52.276;9.946;2023-12-28T15:26:37;10.60;18.40
5842;DHT22;2947;52.276;9.946;2023-12-28T15:29:02;10.60;72.50
5842;DHT22;2947;52.276;9.946;2023-12-28T15:31:29;10.60;99.90
5842;DHT22;2947;52.276;9.946;2023-12-28T15:33:55;10.60;98.30
5842;DHT22;2947;52.276;9.946;2023-12-28T15:36:22;10.50;99.90
5842;DHT22;2947;52.276;9.946;2023-12-28T15:38:47;10.60;99.90
5842;DHT22;2947;52.276;9.946;2023-12-28T15:41:13;10.50;1.00
5842;DHT22;2947;52.276;9.946;2023-12-28T15:43:40;10.60;98.90
5842;DHT22;2947;52.276;9.946;2023-12-28T15:46:05;10.50;99.90
5842;DHT22;2947;52.276;9.946;2023-12-28T15:48:31;10.50;99.90
5842;DHT22;2947;52.276;9.946;2023-12-28T15:50:56;10.50;99.90
5842;DHT22;2947;52.276;9.946;2023-12-28T15:53:22;10.50;99.90
5842;DHT22;2947;52.276;9.946;2023-12-28T15:55:48;10.50;99.90
5842;DHT22;2947;52.276;9.946;2023-12-28T15:58:13;10.50;99.90
5842;DHT22;2947;52.276;9.946;2023-12-28T16:00:39;10.50;94.70
5842;DHT22;2947;52.276;9.946;2023-12-28T16:03:05;10.50;99.90
5842;DHT22;2947;52.276;9.946;2023-12-28T16:05:30;10.50;99.90
5842;DHT22;2947;52.276;9.946;2023-12-28T16:07:56;10.50;99.90
5842;DHT22;2947;52.276;9.946;2023-12-28T16:10:22;10.40;99.90
5842;DHT22;2947;52.276;9.946;2023-12-28T16:12:48;10.40;99.90
5842;DHT22;2947;52.276;9.946;2023-12-28T16:15:14;10.40;99.90
5842;DHT22;2947;52.276;9.946;2023-12-28T16:17:40;10.40;99.90